Flight Track Log - Related Links

Times and Time Zones

All times are in EDT time to prevent confusion due to time zone crossing. See the N8887B flight status page for this flight to view local times or setup timezone preferences in your user account.

Time Position Orientation Groundspeed Altitude Reporting Facility
EDT Latitude Longitude Course Direction KTS MPH feet Rate Location/Type
Wed 05:23:10 PM 44.9667 -93.0500 19° North 142 163 2,700  Level Minneapolis TRACON
Wed 05:24:04 PM 45.0000 -93.0333 19° North 155 178 3,900 689 Climbing Minneapolis TRACON
Wed 05:25:12 PM 45.0611 -93.0564 345° North 196 226 4,100 46 Climbing Minneapolis Center
Wed 05:26:14 PM 45.1111 -93.0931 333° Northwest 210 242 4,000 -145 Descending Minneapolis Center
Wed 05:27:16 PM 45.1536 -93.1511 316° Northwest 214 246 3,800 145 Descending Minneapolis Center
Wed 05:28:18 PM 45.1919 -93.2097 313° West 205 236 4,300 726 Climbing Minneapolis Center
Wed 05:29:20 PM 45.2044 -93.2783 285° West 183 211 5,300 1,548 Climbing Minneapolis Center
Wed 05:30:22 PM 45.2239 -93.3497 291° West 162 186 7,500 1,790 Climbing Minneapolis Center
Wed 05:31:24 PM 45.2389 -93.4028 292° West 148 170 9,000 1,452 Climbing Minneapolis Center
Wed 05:32:26 PM 45.2542 -93.4606 291° West 157 181 10,500 1,500 Climbing Minneapolis Center
Wed 05:33:28 PM 45.2700 -93.5178 291° West 156 180 12,100 1,452 Climbing Minneapolis Center
Wed 05:34:30 PM 45.2969 -93.5614 311° West 149 171 13,500 919 Climbing Minneapolis Center
Wed 05:35:32 PM 45.3272 -93.6075 313° West 162 186 14,000 242 Climbing Minneapolis Center
Wed 05:36:34 PM 45.3719 -93.6883 308° West 214 246 14,000  Level Minneapolis Center
Wed 05:37:36 PM 45.4103 -93.7564 309° West 221 254 14,000  Level Minneapolis Center
Wed 05:38:38 PM 45.4492 -93.8211 311° West 216 249 14,000 -48 Level Minneapolis Center
Wed 05:39:40 PM 45.4861 -93.8867 309° West 213 245 13,900 -48 Descending Minneapolis Center
Wed 05:40:42 PM 45.5231 -93.9525 309° West 213 245 13,900  Level Minneapolis Center
Wed 05:41:45 PM 45.5600 -94.0181 309° West 213 245 13,900  Level Minneapolis Center
Wed 05:42:47 PM 45.6036 -94.0967 308° West 213 245 13,900  Level Minneapolis Center
Wed 05:43:49 PM 45.6422 -94.1603 311° West 213 245 13,900  Level Minneapolis Center
Wed 05:44:51 PM 45.6781 -94.2256 308° West 210 242 13,900  Level Minneapolis Center
Wed 05:45:53 PM 45.7161 -94.2908 310° West 212 244 13,900  Level Minneapolis Center
Wed 05:46:55 PM 45.7539 -94.3558 310° West 213 245 13,900  Level Minneapolis Center
Wed 05:47:57 PM 45.7906 -94.4203 309° West 211 243 13,900  Level Minneapolis Center
Wed 05:48:59 PM 45.8336 -94.5003 308° West 211 243 13,900  Level Minneapolis Center
Wed 05:50:01 PM 45.8694 -94.5667 308° West 211 243 13,900  Level Minneapolis Center
Wed 05:51:03 PM 45.9067 -94.6300 310° West 210 242 13,900  Level Minneapolis Center
Wed 05:52:05 PM 45.9428 -94.6961 308° West 210 242 13,900  Level Minneapolis Center
Wed 05:53:07 PM 45.9783 -94.7611 308° West 209 241 13,900  Level Minneapolis Center
Wed 05:54:09 PM 46.0156 -94.8253 310° West 209 241 13,900  Level Minneapolis Center
Wed 05:55:10 PM 46.0592 -94.9042 309° West 210 242 13,900  Level Minneapolis Center
Wed 05:56:12 PM 46.0958 -94.9700 309° West 211 243 13,900  Level Minneapolis Center
Wed 05:57:14 PM 46.1322 -95.0361 308° West 210 242 13,900  Level Minneapolis Center
Wed 05:58:16 PM 46.1689 -95.1064 307° West 211 243 13,900  Level Minneapolis Center
Wed 05:59:18 PM 46.2031 -95.1681 309° West 209 241 13,900  Level Minneapolis Center
Wed 06:00:20 PM 46.2386 -95.2350 308° West 209 241 13,900  Level Minneapolis Center
Wed 06:01:22 PM 46.2822 -95.3139 309° West 210 242 13,900  Level Minneapolis Center
Wed 06:02:24 PM 46.3181 -95.3814 308° West 211 243 13,900  Level Minneapolis Center
Wed 06:03:26 PM 46.3558 -95.4531 307° West 213 245 13,900  Level Minneapolis Center
Wed 06:04:28 PM 46.3925 -95.5167 310° West 210 242 13,900  Level Minneapolis Center
Wed 06:05:30 PM 46.4281 -95.5856 307° West 213 245 13,900  Level Minneapolis Center
Wed 06:06:32 PM 46.4706 -95.6650 308° West 220 253 13,900  Level Minneapolis Center
Wed 06:07:34 PM 46.5097 -95.7361 309° West 217 250 13,900  Level Minneapolis Center
Wed 06:08:36 PM 46.5447 -95.8036 307° West 218 251 13,900 48 Level Minneapolis Center
Wed 06:09:38 PM 46.5839 -95.8744 309° West 215 247 14,000 48 Climbing Minneapolis Center
Wed 06:10:40 PM 46.6219 -95.9461 308° West 215 247 14,000  Level Minneapolis Center
Wed 06:11:42 PM 46.6606 -96.0181 308° West 215 247 14,000  Level Minneapolis Center
Wed 06:12:44 PM 46.6981 -96.0897 307° West 215 247 14,000  Level Minneapolis Center
Wed 06:13:46 PM 46.7361 -96.1611 308° West 215 247 14,000  Level Minneapolis Center
Wed 06:14:48 PM 46.7742 -96.2331 308° West 215 247 14,000  Level Minneapolis Center
Wed 06:15:50 PM 46.8094 -96.2997 308° West 220 253 14,000  Level Minneapolis Center
Wed 06:16:52 PM 46.8472 -96.3736 307° West 215 247 14,000  Level Minneapolis Center
Wed 06:17:57 PM 46.8883 -96.4508 308° West 215 247 14,000  Level Minneapolis Center
Wed 06:18:59 PM 46.9264 -96.5261 307° West 219 252 14,000  Level Minneapolis Center
Wed 06:20:01 PM 46.9608 -96.5922 307° West 216 249 14,000  Level Minneapolis Center
Wed 06:21:03 PM 46.9983 -96.6644 307° West 214 246 14,000  Level Minneapolis Center
Wed 06:22:05 PM 47.0350 -96.7361 307° West 212 244 14,000  Level Minneapolis Center
Wed 06:23:07 PM 47.0731 -96.8075 308° West 214 246 14,000  Level Minneapolis Center
Wed 06:24:09 PM 47.1103 -96.8792 307° West 212 244 14,000  Level Minneapolis Center
Wed 06:25:11 PM 47.1472 -96.9517 307° West 213 245 14,000  Level Minneapolis Center
Wed 06:26:13 PM 47.1842 -97.0228 307° West 211 243 14,000  Level Minneapolis Center
Wed 06:27:15 PM 47.2194 -97.0933 306° West 207 238 14,000  Level Minneapolis Center
Wed 06:28:17 PM 47.2539 -97.1644 306° West 204 235 14,000  Level Minneapolis Center
Wed 06:29:19 PM 47.2867 -97.2300 306° West 205 236 14,000  Level Minneapolis Center
Wed 06:30:21 PM 47.3225 -97.3000 307° West 206 237 14,000  Level Minneapolis Center
Wed 06:31:23 PM 47.3583 -97.3703 307° West 205 236 14,000  Level Minneapolis Center
Wed 06:32:25 PM 47.3942 -97.4406 307° West 205 236 14,000 -48 Level Minneapolis Center
Wed 06:33:27 PM 47.4294 -97.5108 307° West 205 236 13,900 -48 Descending Minneapolis Center
Wed 06:34:29 PM 47.4656 -97.5817 307° West 206 237 13,900  Level Minneapolis Center
Wed 06:35:31 PM 47.4978 -97.6494 305° West 212 244 13,900  Level Minneapolis Center
Wed 06:36:33 PM 47.5311 -97.7164 306° West 210 242 13,900  Level Minneapolis Center
Wed 06:37:35 PM 47.5633 -97.7842 305° West 206 237 13,900 -242 Level Minneapolis Center
Wed 06:38:37 PM 47.6025 -97.8631 306° West 204 235 13,400 -532 Descending Minneapolis Center
Wed 06:39:39 PM 47.6381 -97.9325 307° West 210 242 12,800 -528 Descending Minneapolis Center
Wed 06:40:42 PM 47.6742 -98.0058 306° West 217 250 12,300 -528 Descending Minneapolis Center
Wed 06:41:44 PM 47.7100 -98.0786 306° West 219 252 11,700 -726 Descending Minneapolis Center
Wed 06:42:46 PM 47.7542 -98.1658 307° West 220 253 10,800 -726 Descending Minneapolis Center
Wed 06:43:48 PM 47.7903 -98.2392 306° West 220 253 10,200 -581 Descending Minneapolis Center
Wed 06:44:50 PM 47.8256 -98.3142 305° West 221 254 9,600 -774 Descending Minneapolis Center
Wed 06:45:52 PM 47.8619 -98.3892 306° West 223 257 8,600 -968 Descending Minneapolis Center
Wed 06:46:54 PM 47.8986 -98.4575 309° West 219 252 7,600 -1,016 Descending Minneapolis Center
Wed 06:47:56 PM 47.9322 -98.5275 306° West 214 246 6,500 -1,210 Descending Minneapolis Center
Wed 06:48:58 PM 47.9714 -98.6081 306° West 206 237 5,100 -1,355 Descending Minneapolis Center
Wed 06:50:00 PM 48.0010 -98.6849 315° West  Level FlightAware Approximate
Wed 06:57:00 PM 48.1000 -98.9000 270° West  Level FlightAware Approximate
Wed 06:58:00 PM 48.1146 -98.9083 270° West  Level Estimated
Wed 06:59:00 PM 48.1146 -98.9083 270° West  Level Estimated

Login

Don't have an account? Register now (free) for customized features, flight alerts, and more!